Time;durP1;ratioP1;P1;durP2;ratioP2;P2;SDS_P1;SDS_P2;PMS_P1;PMS_P2;Temp;Humidity;BMP_temperature;BMP_pressure;BME280_temperature;BME280_humidity;BME280_pressure;Samples;Min_cycle;Max_cycle;Signal;HPM_P1;HPM_P2
2023/06/04 00:00:48;;;;;;;11.50;11.10;;;11.90;99.60;;;;;;5042145;28;20480;-68
2023/06/04 00:03:15;;;;;;;11.50;11.10;;;11.80;99.20;;;;;;5040063;28;20475;-68
2023/06/04 00:05:42;;;;;;;12.40;11.90;;;11.80;99.20;;;;;;5041746;28;20939;-67
2023/06/04 00:08:08;;;;;;;11.40;11.00;;;11.80;99.40;;;;;;5044828;28;20846;-68
2023/06/04 00:10:36;;;;;;;11.20;10.80;;;11.70;99.90;;;;;;5037422;28;20763;-67
2023/06/04 00:13:02;;;;;;;12.80;12.30;;;11.70;99.90;;;;;;5042630;28;20467;-67
2023/06/04 00:15:29;;;;;;;12.40;11.90;;;11.60;99.90;;;;;;5042159;28;20471;-67
2023/06/04 00:17:57;;;;;;;11.80;11.40;;;11.40;99.90;;;;;;5042588;28;20709;-68
2023/06/04 00:20:25;;;;;;;11.10;10.70;;;11.30;99.90;;;;;;5033942;28;20484;-68
2023/06/04 00:22:51;;;;;;;11.50;11.10;;;11.30;99.90;;;;;;5040007;28;20455;-67
2023/06/04 00:25:18;;;;;;;12.80;12.30;;;11.20;99.90;;;;;;5046696;28;20468;-67
2023/06/04 00:27:45;;;;;;;11.83;11.43;;;11.10;99.90;;;;;;5038413;28;20464;-67
2023/06/04 00:30:14;;;;;;;11.77;11.37;;;11.00;99.90;;;;;;5038565;28;20956;-68
2023/06/04 00:32:41;;;;;;;11.70;11.30;;;11.00;99.90;;;;;;5038781;28;20477;-67
2023/06/04 00:35:10;;;;;;;11.80;11.40;;;11.00;99.90;;;;;;5028999;28;20574;-67
2023/06/04 00:37:37;;;;;;;12.67;12.17;;;11.00;99.90;;;;;;5038676;28;20486;-67
2023/06/04 00:40:05;;;;;;;12.07;11.67;;;10.90;99.90;;;;;;5030769;28;20527;-68
2023/06/04 00:42:32;;;;;;;11.87;11.47;;;10.90;99.90;;;;;;5040915;28;20555;-68
2023/06/04 00:44:59;;;;;;;11.30;10.90;;;10.80;99.90;;;;;;5040278;28;20456;-67
2023/06/04 00:47:26;;;;;;;12.00;11.60;;;10.70;99.90;;;;;;5036603;28;20468;-67
2023/06/04 00:49:58;;;;;;;12.23;11.73;;;10.60;99.90;;;;;;5043224;28;20930;-68
2023/06/04 00:52:27;;;;;;;12.03;11.63;;;10.50;99.90;;;;;;5036207;28;20544;-67
2023/06/04 00:54:55;;;;;;;12.57;12.07;;;10.40;99.90;;;;;;5033200;28;21132;-67
2023/06/04 00:57:22;;;;;;;12.17;11.77;;;10.30;99.90;;;;;;5040005;28;20487;-67
2023/06/04 00:59:50;;;;;;;11.90;11.50;;;10.30;99.90;;;;;;5034109;28;20506;-67
2023/06/04 01:02:19;;;;;;;11.67;11.27;;;10.20;99.90;;;;;;5032740;28;20939;-68
2023/06/04 01:04:59;;;;;;;12.10;11.70;;;10.10;99.90;;;;;;5043483;28;20470;-67
2023/06/04 01:07:28;;;;;;;11.33;10.93;;;10.10;99.90;;;;;;5034617;28;20459;-67
2023/06/04 01:09:55;;;;;;;11.83;11.43;;;10.10;99.90;;;;;;5036046;28;20564;-68
2023/06/04 01:12:23;;;;;;;11.57;11.17;;;10.20;99.90;;;;;;5039731;28;21001;-67
2023/06/04 01:14:50;;;;;;;12.47;11.97;;;10.30;99.90;;;;;;5035963;28;20547;-68
2023/06/04 01:17:23;;;;;;;11.37;10.97;;;10.40;99.90;;;;;;5042006;28;20461;-68
2023/06/04 01:20:04;;;;;;;11.40;11.00;;;10.40;99.90;;;;;;5040393;28;20513;-67
2023/06/04 01:22:38;;;;;;;12.20;11.80;;;10.40;99.90;;;;;;5038557;28;20463;-67
2023/06/04 01:25:09;;;;;;;11.97;11.57;;;10.50;99.90;;;;;;5040863;28;20501;-67
2023/06/04 01:27:37;;;;;;;11.10;10.70;;;10.60;99.90;;;;;;5027769;28;20508;-67
2023/06/04 01:30:04;;;;;;;12.07;11.67;;;10.60;99.90;;;;;;5036588;28;20495;-67
2023/06/04 01:32:32;;;;;;;11.70;11.30;;;10.70;99.90;;;;;;5032436;28;20480;-68
2023/06/04 01:34:59;;;;;;;11.20;10.80;;;10.70;99.90;;;;;;5040862;28;20484;-67
2023/06/04 01:37:27;;;;;;;12.60;12.10;;;10.80;99.90;;;;;;5033615;28;20671;-67
2023/06/04 01:39:55;;;;;;;12.20;11.80;;;10.80;99.90;;;;;;5038468;28;20550;-67
2023/06/04 01:42:22;;;;;;;12.53;12.03;;;10.80;99.90;;;;;;5041079;28;20471;-67
2023/06/04 01:44:49;;;;;;;12.40;11.90;;;10.80;99.90;;;;;;5037520;28;20914;-67
2023/06/04 01:47:16;;;;;;;12.40;11.90;;;10.80;99.90;;;;;;5047315;28;20600;-67
2023/06/04 01:49:43;;;;;;;11.70;11.30;;;10.80;99.90;;;;;;5040629;28;20546;-67
2023/06/04 01:52:11;;;;;;;12.03;11.63;;;10.80;99.90;;;;;;5039118;28;20460;-67
2023/06/04 01:54:38;;;;;;;11.60;11.20;;;10.70;99.90;;;;;;5038190;28;20806;-67
2023/06/04 01:57:07;;;;;;;11.10;10.70;;;10.70;99.90;;;;;;5047358;28;20962;-67
2023/06/04 01:59:36;;;;;;;11.00;10.60;;;10.60;99.90;;;;;;5039669;28;20486;-67
2023/06/04 02:02:03;;;;;;;11.00;10.60;;;10.60;99.90;;;;;;5043470;28;20933;-67
2023/06/04 02:04:30;;;;;;;12.60;12.00;;;10.60;99.90;;;;;;5046996;28;20499;-67
2023/06/04 02:06:59;;;;;;;12.60;11.60;;;10.50;99.90;;;;;;5033726;28;20456;-67
2023/06/04 02:09:27;;;;;;;12.10;11.70;;;10.50;99.90;;;;;;5039333;28;20495;-67
2023/06/04 02:11:53;;;;;;;11.67;11.27;;;10.40;99.90;;;;;;5039266;28;20456;-66
2023/06/04 02:14:21;;;;;;;11.47;11.07;;;10.40;99.90;;;;;;5033895;28;20468;-67
2023/06/04 02:16:50;;;;;;;11.63;11.23;;;10.30;99.90;;;;;;5037621;28;20473;-68
2023/06/04 02:19:18;;;;;;;11.47;11.07;;;10.20;99.90;;;;;;5041869;28;20496;-67
2023/06/04 02:21:45;;;;;;;11.40;11.00;;;10.10;99.90;;;;;;5040581;28;20471;-67
2023/06/04 02:24:12;;;;;;;11.13;10.63;;;9.90;99.90;;;;;;5041492;28;20543;-67
2023/06/04 02:26:40;;;;;;;11.60;11.20;;;9.80;99.90;;;;;;5034961;28;20472;-67
2023/06/04 02:29:07;;;;;;;16.67;11.30;;;9.70;99.90;;;;;;5037888;28;21714;-67
2023/06/04 02:31:36;;;;;;;11.00;10.60;;;9.60;99.90;;;;;;5044095;28;20460;-67
2023/06/04 02:34:04;;;;;;;11.50;11.10;;;9.60;99.90;;;;;;5041392;28;20917;-67
2023/06/04 02:36:31;;;;;;;10.97;10.57;;;9.50;99.90;;;;;;5038873;28;20848;-67
2023/06/04 02:38:58;;;;;;;11.03;10.63;;;9.50;99.90;;;;;;5041090;28;20504;-67
2023/06/04 02:41:25;;;;;;;11.80;11.40;;;9.40;99.90;;;;;;5040003;28;20816;-67
2023/06/04 02:43:52;;;;;;;11.23;10.83;;;9.30;99.90;;;;;;5040131;28;20465;-67
2023/06/04 02:46:19;;;;;;;11.57;11.17;;;9.20;99.90;;;;;;5043322;28;20933;-67
2023/06/04 02:48:47;;;;;;;11.17;10.77;;;9.20;99.90;;;;;;5033669;28;20471;-67
2023/06/04 02:51:17;;;;;;;10.90;10.50;;;9.10;99.90;;;;;;5041520;28;20824;-67
2023/06/04 02:53:45;;;;;;;11.60;11.20;;;9.00;99.90;;;;;;5037474;28;20464;-67
2023/06/04 02:56:11;;;;;;;10.73;10.33;;;9.00;99.90;;;;;;5042381;28;21012;-67
2023/06/04 02:58:49;;;;;;;11.40;11.00;;;8.90;99.90;;;;;;5043474;28;20458;-67
2023/06/04 03:01:19;;;;;;;12.63;12.13;;;8.90;99.90;;;;;;5038441;28;20511;-67
2023/06/04 03:03:49;;;;;;;10.60;10.20;;;8.90;99.90;;;;;;5038750;28;20498;-67
2023/06/04 03:06:16;;;;;;;10.40;10.00;;;9.00;99.90;;;;;;5041773;28;20545;-68
2023/06/04 03:08:44;;;;;;;9.93;9.63;;;9.00;99.90;;;;;;5036555;28;20464;-67
2023/06/04 03:11:11;;;;;;;10.00;9.70;;;9.00;99.90;;;;;;5044167;28;20467;-67
2023/06/04 03:13:39;;;;;;;10.30;9.93;;;9.10;99.90;;;;;;5035755;28;20465;-67
2023/06/04 03:16:09;;;;;;;11.30;10.90;;;9.10;99.90;;;;;;5039390;28;21329;-67
2023/06/04 03:18:37;;;;;;;10.60;10.20;;;9.10;99.90;;;;;;5040170;28;20467;-67
2023/06/04 03:21:05;;;;;;;10.63;10.23;;;9.10;99.90;;;;;;5031006;28;20488;-67
2023/06/04 03:23:34;;;;;;;10.80;10.40;;;9.10;99.90;;;;;;5038679;28;20456;-66
2023/06/04 03:26:02;;;;;;;10.90;10.50;;;9.10;99.90;;;;;;5032844;28;20993;-67
2023/06/04 03:28:29;;;;;;;10.60;10.20;;;9.10;99.90;;;;;;5040799;28;21652;-68
2023/06/04 03:30:56;;;;;;;9.90;9.60;;;9.10;99.90;;;;;;5029795;28;20496;-67
2023/06/04 03:33:24;;;;;;;10.40;10.00;;;9.20;99.90;;;;;;5040248;28;20472;-67
2023/06/04 03:35:52;;;;;;;10.87;10.47;;;9.30;99.90;;;;;;5029165;28;20481;-67
2023/06/04 03:38:20;;;;;;;11.53;10.93;;;9.30;99.90;;;;;;5036272;28;20482;-68
2023/06/04 03:40:47;;;;;;;10.40;10.00;;;9.30;99.90;;;;;;5042480;28;20483;-67
2023/06/04 03:43:14;;;;;;;10.97;10.57;;;9.50;99.90;;;;;;5029257;28;20467;-67
2023/06/04 03:45:41;;;;;;;11.07;10.67;;;9.60;99.90;;;;;;5041693;28;20466;-67
2023/06/04 03:48:08;;;;;;;11.43;11.03;;;9.50;99.90;;;;;;5044023;28;20985;-67
2023/06/04 03:50:36;;;;;;;11.00;10.60;;;9.40;99.90;;;;;;5042990;28;20861;-67
2023/06/04 03:53:04;;;;;;;9.40;9.10;;;9.40;99.90;;;;;;5046234;28;20970;-68
2023/06/04 03:55:33;;;;;;;9.83;9.53;;;9.50;99.90;;;;;;5044833;28;20479;-67
2023/06/04 03:58:00;;;;;;;9.73;9.43;;;9.50;99.90;;;;;;5035391;28;20936;-67
2023/06/04 04:00:28;;;;;;;11.07;10.67;;;9.40;99.90;;;;;;5038425;28;20548;-67
2023/06/04 04:02:56;;;;;;;9.77;9.47;;;9.50;99.90;;;;;;5041738;28;20466;-67
2023/06/04 04:05:22;;;;;;;10.83;10.43;;;9.50;99.90;;;;;;5036371;28;20448;-67
2023/06/04 04:07:50;;;;;;;9.90;9.50;;;9.50;99.90;;;;;;5039543;28;20482;-67
2023/06/04 04:10:18;;;;;;;9.73;9.43;;;9.50;99.90;;;;;;5038035;28;20492;-67
2023/06/04 04:12:47;;;;;;;10.03;9.63;;;9.60;99.90;;;;;;5044221;28;20460;-67
2023/06/04 04:15:15;;;;;;;10.40;10.00;;;9.60;99.90;;;;;;5038887;28;20470;-68
2023/06/04 04:17:42;;;;;;;9.53;9.23;;;9.70;99.90;;;;;;5045966;28;20520;-67
2023/06/04 04:20:10;;;;;;;10.10;9.80;;;9.80;99.90;;;;;;5048641;28;20867;-67
2023/06/04 04:22:41;;;;;;;9.30;9.00;;;9.90;99.90;;;;;;5041084;28;20459;-67
2023/06/04 04:25:09;;;;;;;10.73;10.33;;;9.90;99.90;;;;;;5045749;28;20467;-67
2023/06/04 04:27:40;;;;;;;9.87;9.57;;;10.00;99.90;;;;;;5044903;28;21135;-67
2023/06/04 04:30:10;;;;;;;11.00;10.60;;;10.10;99.90;;;;;;5039055;28;20487;-66
2023/06/04 04:32:38;;;;;;;9.70;9.40;;;10.20;99.90;;;;;;5045331;28;20486;-67
2023/06/04 04:35:07;;;;;;;10.03;9.73;;;10.30;99.90;;;;;;5044431;28;20475;-67
2023/06/04 04:37:38;;;;;;;10.50;10.10;;;10.40;99.90;;;;;;5041994;28;20460;-67
2023/06/04 04:40:10;;;;;;;9.93;9.63;;;10.50;99.90;;;;;;5046307;28;20463;-67
2023/06/04 04:42:37;;;;;;;9.73;9.43;;;10.50;99.90;;;;;;5040252;28;20496;-67
2023/06/04 04:45:05;;;;;;;10.50;10.10;;;10.60;99.90;;;;;;5045943;28;20463;-67
2023/06/04 04:47:34;;;;;;;9.40;9.10;;;10.70;99.90;;;;;;5044066;28;20487;-66
2023/06/04 04:50:00;;;;;;;9.60;9.30;;;10.80;99.90;;;;;;5049153;28;20865;-67
2023/06/04 04:52:28;;;;;;;10.00;9.70;;;10.90;99.90;;;;;;5042713;28;20452;-67
2023/06/04 04:54:57;;;;;;;9.70;9.40;;;10.90;99.90;;;;;;5046942;28;20475;-67
2023/06/04 04:57:24;;;;;;;11.43;10.67;;;11.10;99.90;;;;;;5048435;28;20874;-67
2023/06/04 04:59:51;;;;;;;10.33;9.93;;;11.20;99.90;;;;;;5048500;28;20486;-67
2023/06/04 05:02:18;;;;;;;10.63;10.23;;;11.40;99.90;;;;;;5033186;28;21183;-67
2023/06/04 05:04:46;;;;;;;11.13;10.73;;;11.40;99.90;;;;;;5036201;28;20471;-67
2023/06/04 05:07:13;;;;;;;10.97;10.57;;;11.60;99.90;;;;;;5038187;28;20460;-66
2023/06/04 05:09:40;;;;;;;10.80;10.40;;;11.70;99.90;;;;;;5036990;28;20492;-68
2023/06/04 05:12:08;;;;;;;11.97;11.50;;;11.80;99.90;;;;;;5042216;28;20476;-67
2023/06/04 05:14:36;;;;;;;11.57;11.17;;;12.00;99.90;;;;;;5043823;28;20468;-67
2023/06/04 05:17:04;;;;;;;12.23;11.77;;;12.00;99.90;;;;;;5042683;28;20475;-67
2023/06/04 05:19:32;;;;;;;11.13;10.73;;;12.10;99.90;;;;;;5046810;28;20483;-67
2023/06/04 05:22:01;;;;;;;11.20;10.70;;;12.20;99.90;;;;;;5038987;28;20468;-67
2023/06/04 05:24:28;;;;;;;11.80;11.40;;;12.40;99.90;;;;;;5040924;28;20465;-67
2023/06/04 05:26:56;;;;;;;11.93;11.43;;;12.50;99.90;;;;;;5038782;28;20463;-67
2023/06/04 05:29:23;;;;;;;12.43;11.93;;;12.60;99.90;;;;;;5035148;28;20451;-67
2023/06/04 05:31:49;;;;;;;11.50;11.10;;;12.80;99.90;;;;;;5044073;28;20468;-68
2023/06/04 05:34:18;;;;;;;11.97;11.47;;;12.80;99.90;;;;;;5042286;28;20514;-67
2023/06/04 05:36:45;;;;;;;12.43;11.93;;;12.90;99.90;;;;;;5037794;28;20476;-67
2023/06/04 05:39:14;;;;;;;13.50;12.90;;;13.00;99.90;;;;;;5046484;28;20463;-67
2023/06/04 05:41:42;;;;;;;12.53;12.03;;;13.10;99.90;;;;;;5043504;28;21000;-68
2023/06/04 05:44:09;;;;;;;13.10;12.60;;;13.20;99.90;;;;;;5037030;28;20453;-67
2023/06/04 05:46:36;;;;;;;13.43;12.93;;;13.30;99.90;;;;;;5032797;28;20836;-67
2023/06/04 05:49:04;;;;;;;12.90;12.40;;;13.50;99.90;;;;;;5038894;28;20904;-66
2023/06/04 05:51:31;;;;;;;13.20;12.70;;;13.50;99.90;;;;;;5038449;28;20500;-67
2023/06/04 05:53:58;;;;;;;13.33;12.83;;;13.60;99.90;;;;;;5038764;28;20560;-66
2023/06/04 05:56:26;;;;;;;13.53;13.00;;;13.70;99.90;;;;;;5038507;28;20471;-67
2023/06/04 05:58:54;;;;;;;13.00;12.50;;;13.90;99.90;;;;;;5037753;28;20991;-67
2023/06/04 06:01:21;;;;;;;13.53;12.93;;;14.10;99.90;;;;;;5038476;28;20483;-66
2023/06/04 06:03:48;;;;;;;13.87;13.27;;;14.20;99.90;;;;;;5039980;28;20468;-68
2023/06/04 06:06:15;;;;;;;13.70;13.10;;;14.20;99.90;;;;;;5042312;28;20477;-66
2023/06/04 06:08:42;;;;;;;16.13;15.33;;;14.40;99.90;;;;;;5031500;28;21010;-67
2023/06/04 06:11:09;;;;;;;12.80;12.30;;;14.50;99.90;;;;;;5038533;28;21080;-67
2023/06/04 06:13:38;;;;;;;13.97;13.37;;;14.50;99.90;;;;;;5036901;28;20465;-67
2023/06/04 06:16:04;;;;;;;13.97;13.37;;;14.60;99.90;;;;;;5030549;28;20454;-66
2023/06/04 06:18:31;;;;;;;13.50;13.00;;;14.70;99.90;;;;;;5035562;28;20909;-66
2023/06/04 06:20:58;;;;;;;14.00;13.40;;;14.60;99.90;;;;;;5034885;28;20910;-66
2023/06/04 06:23:25;;;;;;;13.60;13.07;;;14.70;99.90;;;;;;5039417;28;20842;-67
2023/06/04 06:25:54;;;;;;;13.10;12.60;;;15.00;99.90;;;;;;5042274;28;20452;-67
2023/06/04 06:28:21;;;;;;;13.73;12.90;;;15.10;99.90;;;;;;5032902;28;20465;-66
2023/06/04 06:30:49;;;;;;;13.07;12.57;;;15.30;99.90;;;;;;5041240;28;20553;-67
2023/06/04 06:33:21;;;;;;;14.00;13.03;;;15.40;99.90;;;;;;5039654;28;20476;-67
2023/06/04 06:35:48;;;;;;;13.30;12.80;;;15.50;99.90;;;;;;5038909;28;20463;-66
2023/06/04 06:38:15;;;;;;;13.90;13.30;;;15.60;99.90;;;;;;5037312;28;20628;-66
2023/06/04 06:40:42;;;;;;;13.00;12.50;;;15.70;99.90;;;;;;5038160;28;20463;-67
2023/06/04 06:43:09;;;;;;;13.80;13.10;;;15.70;99.90;;;;;;5038886;28;20518;-67
2023/06/04 06:45:36;;;;;;;13.60;13.10;;;15.70;99.90;;;;;;5040705;28;20964;-66
2023/06/04 06:48:05;;;;;;;12.70;12.20;;;15.80;99.90;;;;;;5038244;28;20472;-66
2023/06/04 06:50:33;;;;;;;14.13;13.30;;;16.00;99.90;;;;;;5037760;28;20497;-67
2023/06/04 06:53:00;;;;;;;13.00;12.50;;;16.10;99.90;;;;;;5037531;28;20463;-67
2023/06/04 06:55:26;;;;;;;13.63;13.03;;;16.30;99.90;;;;;;5038361;28;20470;-67
2023/06/04 06:57:53;;;;;;;12.90;12.40;;;16.50;99.90;;;;;;5040540;28;20457;-67
2023/06/04 07:00:20;;;;;;;13.20;12.70;;;16.60;99.90;;;;;;5040407;28;21023;-67
2023/06/04 07:02:47;;;;;;;13.50;13.00;;;16.80;99.90;;;;;;5035565;28;20464;-67
2023/06/04 07:05:17;;;;;;;13.30;12.80;;;17.00;99.90;;;;;;5041580;28;20467;-67
2023/06/04 07:07:46;;;;;;;12.30;11.80;;;17.10;99.90;;;;;;5036750;28;20539;-66
2023/06/04 07:10:13;;;;;;;12.67;12.17;;;17.10;99.90;;;;;;5044408;28;20571;-67
2023/06/04 07:12:40;;;;;;;12.40;11.90;;;17.20;99.90;;;;;;5038517;28;20487;-67
2023/06/04 07:15:09;;;;;;;12.60;12.10;;;17.20;99.90;;;;;;5030715;28;20460;-68
2023/06/04 07:17:36;;;;;;;13.20;12.40;;;17.30;99.90;;;;;;5037888;28;21125;-67
2023/06/04 07:20:03;;;;;;;13.10;12.60;;;17.50;99.90;;;;;;5028187;28;20894;-67
2023/06/04 07:22:31;;;;;;;13.10;12.50;;;17.50;99.90;;;;;;5037371;28;20521;-67
2023/06/04 07:24:58;;;;;;;13.00;12.50;;;17.70;99.90;;;;;;5042066;28;20456;-67
2023/06/04 07:27:26;;;;;;;13.00;12.50;;;17.90;99.90;;;;;;5046933;28;20460;-67
2023/06/04 07:29:53;;;;;;;13.03;12.53;;;18.00;99.90;;;;;;5040685;28;20514;-67
2023/06/04 07:32:19;;;;;;;13.30;12.73;;;18.20;99.90;;;;;;5038893;28;20502;-67
2023/06/04 07:34:46;;;;;;;13.10;12.60;;;18.20;99.90;;;;;;5042062;28;20460;-67
2023/06/04 07:37:15;;;;;;;13.27;12.67;;;18.50;99.90;;;;;;5040989;28;20455;-67
2023/06/04 07:39:43;;;;;;;13.30;12.80;;;18.40;99.90;;;;;;5041422;28;20456;-67
2023/06/04 07:42:09;;;;;;;13.10;12.60;;;18.50;99.90;;;;;;5041886;28;20471;-67
2023/06/04 07:44:38;;;;;;;13.43;12.93;;;18.60;99.90;;;;;;5040631;28;20466;-67
2023/06/04 07:47:06;;;;;;;12.77;12.27;;;18.70;99.80;;;;;;5038860;28;20499;-67
2023/06/04 07:49:34;;;;;;;13.60;13.00;;;18.90;99.90;;;;;;5038440;28;20902;-67
2023/06/04 07:52:01;;;;;;;12.50;12.00;;;19.20;99.30;;;;;;5041889;28;20494;-68
2023/06/04 07:54:28;;;;;;;12.60;12.10;;;19.20;98.30;;;;;;5036197;28;20463;-68
2023/06/04 07:56:58;;;;;;;13.23;12.73;;;19.20;98.60;;;;;;5042471;28;20477;-67
2023/06/04 07:59:25;;;;;;;12.90;12.40;;;19.30;98.80;;;;;;5038071;28;20513;-67
2023/06/04 08:01:52;;;;;;;12.90;12.40;;;19.40;97.70;;;;;;5038518;28;20463;-68
2023/06/04 08:04:19;;;;;;;13.60;13.00;;;19.60;97.40;;;;;;5049717;28;20803;-67
2023/06/04 08:06:47;;;;;;;14.07;13.47;;;19.70;97.60;;;;;;5039453;28;20460;-67
2023/06/04 08:09:16;;;;;;;13.70;13.00;;;20.50;96.50;;;;;;5046889;28;20829;-68
2023/06/04 08:11:44;;;;;;;12.77;12.27;;;21.50;93.60;;;;;;5039310;28;20488;-67
2023/06/04 08:14:13;;;;;;;13.50;12.93;;;21.50;92.50;;;;;;5042306;28;20471;-68
2023/06/04 08:16:41;;;;;;;12.90;12.40;;;21.80;92.80;;;;;;5041690;28;20460;-68
2023/06/04 08:19:08;;;;;;;12.80;12.30;;;22.70;91.50;;;;;;5040521;28;20452;-68
2023/06/04 08:21:35;;;;;;;13.60;13.00;;;22.70;88.90;;;;;;5037552;28;20460;-67
2023/06/04 08:24:03;;;;;;;13.33;12.83;;;23.10;84.30;;;;;;5040874;28;20456;-68
2023/06/04 08:26:30;;;;;;;13.80;13.20;;;23.50;83.50;;;;;;5035326;28;20468;-67
2023/06/04 08:28:58;;;;;;;14.50;13.60;;;23.70;81.70;;;;;;5038247;28;20471;-68
2023/06/04 08:31:28;;;;;;;13.10;12.60;;;23.90;78.00;;;;;;5039995;28;20494;-68
2023/06/04 08:33:55;;;;;;;12.93;12.43;;;23.90;75.90;;;;;;5038184;28;20490;-68
2023/06/04 08:36:22;;;;;;;13.17;12.67;;;24.30;78.60;;;;;;5042889;28;20469;-67
2023/06/04 08:38:52;;;;;;;13.50;12.90;;;25.10;73.80;;;;;;5039137;28;20646;-68
2023/06/04 08:41:26;;;;;;;12.93;12.43;;;25.20;69.50;;;;;;5039869;28;20474;-68
2023/06/04 08:43:56;;;;;;;13.47;12.90;;;25.40;69.00;;;;;;5040103;28;20462;-68
2023/06/04 08:46:25;;;;;;;12.80;12.30;;;25.40;66.50;;;;;;5032785;28;20510;-68
2023/06/04 08:48:57;;;;;;;13.10;12.50;;;25.40;66.50;;;;;;5041863;28;20463;-68
2023/06/04 08:51:24;;;;;;;13.03;12.53;;;25.40;65.40;;;;;;5040421;28;20494;-68
2023/06/04 08:53:53;;;;;;;13.77;13.20;;;25.70;62.90;;;;;;5037329;28;20465;-68
2023/06/04 08:56:22;;;;;;;14.43;13.83;;;25.60;59.70;;;;;;5040391;28;20467;-68
2023/06/04 08:58:49;;;;;;;13.00;12.50;;;25.90;61.90;;;;;;5043115;28;20452;-68
2023/06/04 09:01:17;;;;;;;13.03;12.53;;;26.10;59.00;;;;;;5038044;28;20491;-68
2023/06/04 09:03:44;;;;;;;13.17;12.67;;;26.30;58.40;;;;;;5044078;28;20458;-68
2023/06/04 09:06:12;;;;;;;12.23;11.73;;;27.30;57.60;;;;;;5038440;28;20496;-67
2023/06/04 09:08:43;;;;;;;13.10;12.60;;;27.60;56.40;;;;;;5038124;28;20881;-67
2023/06/04 09:11:14;;;;;;;13.53;12.93;;;27.00;54.50;;;;;;5037916;28;20575;-68
2023/06/04 09:13:42;;;;;;;13.73;12.70;;;26.40;53.30;;;;;;5037838;28;20461;-68
2023/06/04 09:16:10;;;;;;;12.73;12.13;;;25.90;52.80;;;;;;5040593;28;20467;-68
2023/06/04 09:18:38;;;;;;;12.53;12.03;;;26.40;52.90;;;;;;5045049;28;20464;-68
2023/06/04 09:21:07;;;;;;;12.20;11.73;;;27.00;51.10;;;;;;5044843;28;20519;-68
2023/06/04 09:23:45;;;;;;;12.23;11.77;;;27.30;51.50;;;;;;5047100;28;20550;-68
2023/06/04 09:26:12;;;;;;;13.20;12.33;;;27.70;51.20;;;;;;5040203;28;20469;-68
2023/06/04 09:28:41;;;;;;;12.30;11.80;;;28.00;50.20;;;;;;5031991;28;20463;-68
2023/06/04 09:31:10;;;;;;;12.83;12.33;;;28.00;49.70;;;;;;5041055;28;20488;-68
2023/06/04 09:33:44;;;;;;;12.37;11.87;;;27.60;51.10;;;;;;5033971;28;20472;-68
2023/06/04 09:36:11;;;;;;;12.03;11.53;;;28.00;48.70;;;;;;5039780;28;20858;-68
2023/06/04 09:38:40;;;;;;;11.63;11.23;;;27.60;49.00;;;;;;5039097;28;20468;-68
2023/06/04 09:41:13;;;;;;;12.47;11.97;;;27.10;48.90;;;;;;5036230;28;20547;-68
2023/06/04 09:43:40;;;;;;;11.80;11.40;;;27.60;48.60;;;;;;5037072;28;20467;-68
2023/06/04 09:46:11;;;;;;;13.00;12.40;;;27.80;49.60;;;;;;5029388;28;20540;-68
2023/06/04 09:48:39;;;;;;;13.23;12.73;;;27.90;47.20;;;;;;5040376;28;20463;-68
2023/06/04 09:51:10;;;;;;;12.33;11.83;;;27.70;47.80;;;;;;5041497;28;20492;-68
2023/06/04 09:53:52;;;;;;;12.50;12.00;;;27.80;47.30;;;;;;5041002;28;20521;-68
2023/06/04 09:56:21;;;;;;;12.30;11.80;;;27.60;47.90;;;;;;5036402;28;20876;-68
2023/06/04 09:58:50;;;;;;;12.30;11.80;;;27.80;47.60;;;;;;5032528;28;20465;-68
2023/06/04 10:01:18;;;;;;;12.70;12.10;;;28.00;46.10;;;;;;5038977;28;20455;-68
2023/06/04 10:03:48;;;;;;;12.43;11.93;;;28.30;46.00;;;;;;5035742;28;20488;-68
2023/06/04 10:06:16;;;;;;;12.67;12.13;;;28.70;45.60;;;;;;5042236;28;20486;-68
2023/06/04 10:08:44;;;;;;;11.73;11.33;;;28.90;44.40;;;;;;5043794;28;20566;-69
2023/06/04 10:11:12;;;;;;;12.43;11.97;;;28.90;44.80;;;;;;5032694;28;20874;-68
2023/06/04 10:13:47;;;;;;;12.13;11.63;;;29.20;44.30;;;;;;5038321;28;20800;-68
2023/06/04 10:16:14;;;;;;;12.70;12.20;;;29.50;45.00;;;;;;5045811;28;20460;-68
2023/06/04 10:18:42;;;;;;;12.10;11.60;;;29.20;44.70;;;;;;5034210;28;20464;-68
2023/06/04 10:21:09;;;;;;;11.80;11.40;;;28.50;43.10;;;;;;5041508;28;20860;-68
2023/06/04 10:23:36;;;;;;;12.30;11.80;;;28.70;45.20;;;;;;5037370;28;20460;-68
2023/06/04 10:26:03;;;;;;;12.97;12.27;;;28.10;43.40;;;;;;5027567;28;20804;-68
2023/06/04 10:28:30;;;;;;;11.87;11.47;;;28.20;44.10;;;;;;5041693;28;20468;-68
2023/06/04 10:30:59;;;;;;;11.97;11.57;;;28.00;44.00;;;;;;5046534;28;20550;-68
2023/06/04 10:33:28;;;;;;;12.57;12.07;;;28.70;44.60;;;;;;5047356;28;20503;-68
2023/06/04 10:35:56;;;;;;;12.07;11.67;;;29.80;43.50;;;;;;5032876;28;20910;-69
2023/06/04 10:38:23;;;;;;;12.70;12.20;;;29.60;44.20;;;;;;5039582;28;20519;-68
2023/06/04 10:40:50;;;;;;;12.40;11.90;;;30.10;42.70;;;;;;5040332;28;20581;-68
2023/06/04 10:43:17;;;;;;;13.00;12.50;;;30.30;42.70;;;;;;5043781;28;20459;-68
2023/06/04 10:45:45;;;;;;;12.30;11.80;;;29.90;42.30;;;;;;5041012;28;20464;-68
2023/06/04 10:48:14;;;;;;;12.20;11.70;;;29.50;41.50;;;;;;5038743;28;20468;-68
2023/06/04 10:50:51;;;;;;;12.27;11.87;;;29.00;41.70;;;;;;5044005;28;20460;-68
2023/06/04 10:53:19;;;;;;;13.30;12.67;;;29.70;42.20;;;;;;5038679;28;20498;-68
2023/06/04 10:55:47;;;;;;;12.30;11.80;;;29.70;42.40;;;;;;5043273;28;20902;-68
2023/06/04 10:58:14;;;;;;;13.03;12.50;;;29.30;43.30;;;;;;5036053;28;20471;-68
2023/06/04 11:00:42;;;;;;;13.63;12.83;;;29.50;42.50;;;;;;5045341;28;21145;-68
2023/06/04 11:03:11;;;;;;;12.23;11.77;;;29.20;41.70;;;;;;5038046;28;20567;-69
2023/06/04 11:05:40;;;;;;;12.60;12.10;;;29.20;43.10;;;;;;5038109;28;20542;-68
2023/06/04 11:08:09;;;;;;;12.60;12.10;;;30.30;41.80;;;;;;5039338;28;20966;-68
2023/06/04 11:10:38;;;;;;;13.00;12.50;;;30.90;41.90;;;;;;5026681;28;20500;-68
2023/06/04 11:13:06;;;;;;;12.80;12.30;;;30.60;42.40;;;;;;5040088;28;20530;-68
2023/06/04 11:15:40;;;;;;;12.83;12.33;;;30.90;41.30;;;;;;5042489;28;20563;-68
2023/06/04 11:18:07;;;;;;;13.60;13.00;;;30.90;41.00;;;;;;5033118;28;20803;-68
2023/06/04 11:20:34;;;;;;;12.70;12.20;;;30.60;40.40;;;;;;5042264;28;20831;-68
2023/06/04 11:23:03;;;;;;;13.47;12.67;;;30.50;42.00;;;;;;5043836;28;20460;-68
2023/06/04 11:25:32;;;;;;;12.33;11.83;;;30.90;40.80;;;;;;5043622;28;20460;-68
2023/06/04 11:28:01;;;;;;;12.50;12.00;;;31.40;39.90;;;;;;5036872;28;20506;-69
2023/06/04 11:30:28;;;;;;;12.80;12.30;;;31.80;40.10;;;;;;5040245;28;20470;-68
2023/06/04 11:33:03;;;;;;;12.87;12.23;;;31.20;40.20;;;;;;5042190;28;20495;-68
2023/06/04 11:35:30;;;;;;;14.10;13.07;;;31.20;40.10;;;;;;5046804;28;20505;-69
2023/06/04 11:37:58;;;;;;;12.47;11.97;;;31.70;39.50;;;;;;5038813;28;20842;-68
2023/06/04 11:40:27;;;;;;;13.80;13.20;;;31.70;39.80;;;;;;5044309;28;20456;-68
2023/06/04 11:42:54;;;;;;;12.60;12.10;;;30.60;39.00;;;;;;5034760;28;20547;-68
2023/06/04 11:45:22;;;;;;;12.97;12.47;;;30.40;39.60;;;;;;5035144;28;20488;-69
2023/06/04 11:47:50;;;;;;;13.50;13.00;;;31.00;41.00;;;;;;5035832;28;20465;-68
2023/06/04 11:50:17;;;;;;;13.53;12.83;;;31.80;41.30;;;;;;5029998;28;20452;-68
2023/06/04 11:52:44;;;;;;;13.03;12.53;;;31.80;39.50;;;;;;5033210;28;20486;-69
2023/06/04 11:55:12;;;;;;;13.30;12.80;;;31.40;39.00;;;;;;5037567;28;20556;-68
2023/06/04 11:57:41;;;;;;;13.90;13.30;;;31.30;38.30;;;;;;5032795;28;20492;-69
2023/06/04 12:00:10;;;;;;;13.07;12.57;;;31.20;38.30;;;;;;5041293;28;20545;-68
2023/06/04 12:02:37;;;;;;;13.40;12.90;;;31.90;38.50;;;;;;5029935;28;20460;-68
2023/06/04 12:05:15;;;;;;;13.03;12.53;;;32.30;37.80;;;;;;5041965;28;20468;-68
2023/06/04 12:07:43;;;;;;;13.10;12.60;;;32.90;39.00;;;;;;5040551;28;21253;-69
2023/06/04 12:10:11;;;;;;;13.50;12.90;;;32.40;37.00;;;;;;5049340;28;20521;-68
2023/06/04 12:12:40;;;;;;;12.57;12.07;;;31.90;37.00;;;;;;5044048;28;20499;-68
2023/06/04 12:15:09;;;;;;;13.20;12.60;;;32.10;38.40;;;;;;5047126;28;20932;-68
2023/06/04 12:17:37;;;;;;;12.67;12.17;;;31.80;37.90;;;;;;5045845;28;20466;-69
2023/06/04 12:20:05;;;;;;;13.27;12.77;;;31.60;39.20;;;;;;5042195;28;20570;-68
2023/06/04 12:22:32;;;;;;;12.77;12.27;;;31.90;37.10;;;;;;5036996;28;20468;-69
2023/06/04 12:25:02;;;;;;;13.23;12.73;;;32.60;37.00;;;;;;5046726;28;20467;-68
2023/06/04 12:27:29;;;;;;;13.40;12.90;;;34.10;37.40;;;;;;5042028;28;20459;-68
2023/06/04 12:29:59;;;;;;;13.10;12.60;;;34.50;35.50;;;;;;5044596;28;20535;-69
2023/06/04 12:32:25;;;;;;;13.60;13.00;;;34.40;35.80;;;;;;5040365;28;20583;-68
2023/06/04 12:34:53;;;;;;;13.00;12.50;;;34.20;35.20;;;;;;5042458;28;20822;-69